Latest Weather Observations for White Cliffs AWS

IDN60801

Issued at 4:43 pm EDT Thursday 12 December 2019 (issued every 10 minutes, with the page automatically refreshed every 10 minutes)

About weather observations | Map of weather stations | Latest weather observations for NSW | Other Formats
Station Details ID: 046129 Name: WHITE CLIFFS AWS Lat: -30.85 Lon: 143.07 Height: 158.0 m
Data from the previous 72 hours. | See also: Recent months at White Cliffs AWS
Date/Time
EDT
Temp
°C
App
Temp
°C
Dew
Point
°C
Rel
Hum
%
Delta-T
°C
Wind Press
QNH
hPa
Press
MSL
hPa
Rain since
9am
mm
Dir  Spd
km/h
Gust
km/h
Spd
kts
Gust
kts
12/04:30pm 31.3 24.6 3.4 17 14.3 SSW 28 41 15 22 1014.2 1013.3 0.0
12/04:00pm 32.8 26.7 2.8 15 15.4 S 24 39 13 21 1014.2 1013.3 0.0
12/03:30pm 32.4 25.1 2.5 15 15.2 SSW 30 39 16 21 1014.0 1013.1 0.0
12/03:00pm 31.4 25.3 2.6 16 14.6 S 24 35 13 19 1014.1 1013.2 0.0
12/02:30pm 30.7 24.5 2.0 16 14.4 S 24 37 13 20 1014.3 1013.4 0.0
12/02:00pm 29.9 23.7 2.2 17 13.8 S 24 35 13 19 1014.7 1013.8 0.0
12/01:30pm 30.7 24.6 2.9 17 14.1 SSE 24 33 13 18 1014.8 1013.9 0.0
12/01:00pm 30.3 23.4 2.5 17 14.0 SSE 28 41 15 22 1014.9 1014.0 0.0
12/12:30pm 29.1 22.0 1.6 17 13.5 S 28 39 15 21 1015.2 1014.3 0.0
12/12:00pm 29.3 21.9 1.7 17 13.6 SSE 30 37 16 20 1015.3 1014.4 0.0
12/11:30am 28.8 21.8 2.1 18 13.2 SSE 28 39 15 21 1015.5 1014.6 0.0
12/11:00am 28.0 20.4 3.0 20 12.5 SSE 32 41 17 22 1015.6 1014.7 0.0
12/10:30am 27.2 20.0 3.0 21 12.0 SSE 30 37 16 20 1015.6 1014.7 0.0
12/10:00am 26.5 19.7 3.1 22 11.6 SSE 28 41 15 22 1015.8 1014.9 0.0
12/09:30am 25.4 17.8 2.8 23 11.1 SSE 32 39 17 21 1015.8 1014.9 0.0
12/09:00am 24.6 16.9 2.1 23 10.8 SSE 32 41 17 22 1015.8 1014.9 0.0
12/08:30am 23.7 15.7 1.4 23 10.5 S 33 43 18 23 1015.6 1014.7 0.0
12/08:00am 23.3 14.4 1.0 23 10.4 S 37 44 20 24 1015.1 1014.2 0.0
12/07:30am 22.4 14.6 1.4 25 9.8 S 32 39 17 21 1014.6 1013.7 0.0
12/07:00am 21.9 15.1 1.0 25 9.6 S 26 33 14 18 1014.3 1013.4 0.0
12/06:30am 21.5 15.4 0.1 24 9.7 S 22 28 12 15 1014.0 1013.1 0.0
12/06:00am 21.9 15.0 -0.1 23 9.9 S 26 32 14 17 1013.9 1013.0 0.0
12/05:30am 22.2 15.6 -0.5 22 10.2 S 24 28 13 15 1013.4 1012.4 0.0
12/05:00am 22.5 16.1 -1.6 20 10.6 SSW 22 26 12 14 1013.3 1012.3 0.0
12/04:30am 22.8 16.7 -2.0 19 10.9 S 20 22 11 12 1013.1 1012.1 0.0
12/04:00am 23.5 17.5 -1.4 19 11.1 S 20 24 11 13 1012.9 1011.9 0.0
12/03:30am 24.0 18.0 -1.8 18 11.5 S 20 26 11 14 1012.8 1011.8 0.0
12/03:00am 24.4 18.0 -1.4 18 11.6 S 22 26 12 14 1013.2 1012.2 0.0
12/02:30am 25.0 18.6 -1.7 17 12.0 S 22 26 12 14 1013.3 1012.3 0.0
12/02:00am 25.5 19.2 -1.3 17 12.2 S 22 28 12 15 1013.6 1012.6 0.0
12/01:30am 25.9 19.2 -1.0 17 12.3 S 24 30 13 16 1014.0 1013.1 0.0
12/01:00am 26.3 19.9 -1.5 16 12.7 S 22 28 12 15 1014.0 1013.1 0.0
12/12:30am 26.8 20.0 -2.0 15 13.1 S 24 30 13 16 1014.0 1013.1 0.0
12/12:00am 27.4 20.5 -2.4 14 13.5 S 24 30 13 16 1014.1 1013.2 0.0
 
Date/Time
EDT
Temp
°C
App
Temp
°C
Dew
Point
°C
Rel
Hum
%
Delta-T
°C
Wind Press
QNH
hPa
Press
MSL
hPa
Rain since
9am
mm
Dir  Spd
km/h
Gust
km/h
Spd
kts
Gust
kts
11/11:30pm 28.0 21.4 -3.0 13 13.9 S 22 32 12 17 1014.1 1013.2 0.0
11/11:00pm 28.4 22.3 -2.6 13 14.1 SSW 20 26 11 14 1013.9 1013.0 0.0
11/10:30pm 29.1 22.9 -3.2 12 14.6 SSW 20 26 11 14 1013.7 1012.7 0.0
11/10:00pm 29.6 23.5 -3.9 11 15.0 SSW 19 20 10 11 1013.5 1012.5 0.0
11/09:30pm 30.6 24.4 -4.4 10 15.7 SSW 19 22 10 12 1013.2 1012.2 0.0
11/09:00pm 31.5 24.7 -5.2 9 16.3 S 22 28 12 15 1012.9 1011.9 0.0
11/08:30pm 32.4 25.3 -4.5 9 16.7 S 24 30 13 16 1012.6 1011.6 0.0
11/08:00pm 33.5 26.3 -5.2 8 17.5 S 24 32 13 17 1012.4 1011.4 0.0
11/07:30pm 34.3 27.0 -3.1 9 17.6 SSW 26 33 14 18 1012.1 1011.1 0.0
11/07:00pm 34.7 28.0 -1.4 10 17.5 S 24 37 13 20 1011.8 1010.8 0.0
11/06:30pm 35.0 29.1 -1.1 10 17.6 S 20 30 11 16 1011.6 1010.6 0.0
11/06:00pm 35.0 29.3 -1.1 10 17.6 SSW 19 32 10 17 1011.5 1010.5 0.0
11/05:30pm 34.8 27.9 0.0 11 17.3 SW 26 39 14 21 1011.6 1010.6 0.0
11/05:00pm 35.3 30.1 0.4 11 17.5 S 17 28 9 15 1011.9 1010.9 0.0
11/04:30pm 35.4 28.9 0.5 11 17.5 SSW 24 41 13 22 1012.1 1011.1 0.0
11/04:00pm 35.3 29.4 -0.9 10 17.8 SSW 20 33 11 18 1012.7 1011.7 0.0
11/03:30pm 34.7 28.3 -1.4 10 17.5 SSW 22 35 12 19 1013.0 1012.0 0.0
11/03:00pm 35.5 28.8 -0.8 10 17.9 SSW 24 43 13 23 1013.1 1012.1 0.0
11/02:30pm 34.6 29.0 1.1 12 16.9 SSW 20 32 11 17 1013.3 1012.3 0.0
11/02:00pm 33.9 27.4 0.5 12 16.6 S 24 33 13 18 1013.6 1012.6 0.0
11/01:30pm 33.9 28.0 1.6 13 16.4 SSE 22 35 12 19 1013.8 1012.8 0.0
11/01:00pm 32.8 27.1 0.8 13 15.9 SSE 20 30 11 16 1014.0 1013.1 0.0
11/12:30pm 32.3 26.5 2.4 15 15.2 SSE 22 33 12 18 1014.1 1013.2 0.0
11/12:00pm 32.5 26.7 2.5 15 15.3 SSE 22 32 12 17 1014.2 1013.3 0.0
11/11:30am 30.8 24.2 2.1 16 14.4 SSE 26 33 14 18 1014.5 1013.6 0.0
11/11:00am 29.9 23.6 1.4 16 14.0 SSE 24 33 13 18 1014.8 1013.9 0.0
11/10:30am 29.9 23.3 2.2 17 13.8 SE 26 32 14 17 1014.7 1013.8 0.0
11/10:00am 29.0 22.8 2.3 18 13.3 SSE 24 33 13 18 1014.6 1013.7 0.0
11/09:30am 28.3 22.0 1.7 18 13.0 SE 24 32 13 17 1014.5 1013.6 0.0
11/09:00am 27.0 20.7 1.4 19 12.4 SSE 24 30 13 16 1014.4 1013.5 0.0
11/08:30am 26.4 20.0 0.9 19 12.1 SSE 24 32 13 17 1014.3 1013.4 0.0
11/08:00am 25.7 19.3 1.1 20 11.7 SSE 24 30 13 16 1014.2 1013.3 0.0
11/07:30am 25.0 18.9 0.5 20 11.5 SSE 22 28 12 15 1013.9 1013.0 0.0
11/07:00am 24.5 18.5 0.8 21 11.1 S 22 26 12 14 1013.4 1012.4 0.0
11/06:30am 24.4 18.3 0.7 21 11.1 S 22 30 12 16 1013.0 1012.0 0.0
11/06:00am 24.8 18.7 0.3 20 11.4 SSE 22 26 12 14 1012.8 1011.8 0.0
11/05:30am 25.2 19.1 0.7 20 11.5 S 22 26 12 14 1012.5 1011.5 0.0
11/05:00am 25.7 19.2 0.4 19 11.9 SSE 24 30 13 16 1012.3 1011.3 0.0
11/04:30am 26.2 20.2 0.8 19 12.1 S 22 30 12 16 1012.3 1011.3 0.0
11/04:00am 26.5 20.5 1.0 19 12.2 S 22 28 12 15 1012.2 1011.2 0.0
11/03:30am 27.1 21.2 1.5 19 12.4 S 22 30 12 16 1012.2 1011.2 0.0
11/03:00am 27.6 21.2 1.2 18 12.8 S 24 32 13 17 1012.4 1011.4 0.0
11/02:30am 28.0 21.8 2.2 19 12.7 S 24 30 13 16 1012.6 1011.6 0.0
11/02:00am 28.6 22.1 2.7 19 12.9 S 26 33 14 18 1012.8 1011.8 0.0
11/01:30am 29.1 22.4 3.9 20 12.9 S 28 37 15 20 1013.0 1012.0 0.0
11/01:00am 29.7 22.9 5.1 21 12.9 S 30 37 16 20 1013.1 1012.1 0.0
11/12:30am 30.4 23.7 5.6 21 13.2 S 30 35 16 19 1013.2 1012.2 0.0
11/12:00am 31.1 24.8 5.5 20 13.6 S 28 33 15 18 1013.3 1012.3 0.0
 
Date/Time
EDT
Temp
°C
App
Temp
°C
Dew
Point
°C
Rel
Hum
%
Delta-T
°C
Wind Press
QNH
hPa
Press
MSL
hPa
Rain since
9am
mm
Dir  Spd
km/h
Gust
km/h
Spd
kts
Gust
kts
10/11:30pm 31.7 25.8 6.0 20 13.8 S 26 32 14 17 1013.5 1012.5 0.0
10/11:00pm 32.4 25.5 6.6 20 14.1 S 32 39 17 21 1013.4 1012.4 0.0
10/10:30pm 33.1 27.0 6.4 19 14.6 SSW 28 35 15 19 1013.3 1012.3 0.0
10/10:00pm 33.8 27.0 7.0 19 14.8 SSW 32 41 17 22 1013.1 1012.1 0.0
10/09:30pm 34.8 28.6 6.2 17 15.7 S 28 35 15 19 1012.7 1011.7 0.0
10/09:00pm 35.3 28.4 6.6 17 15.9 S 32 39 17 21 1012.5 1011.5 0.0
10/08:30pm 36.3 30.2 4.6 14 17.1 S 26 32 14 17 1012.0 1011.0 0.0
10/08:00pm 36.8 30.7 2.8 12 17.9 S 24 30 13 16 1011.8 1010.8 0.0
10/07:30pm 37.5 30.9 2.1 11 18.5 SSW 26 37 14 20 1011.5 1010.5 0.0
10/07:00pm 38.7 32.6 0.2 9 19.7 SSW 22 30 12 16 1011.2 1010.2 0.0
10/06:30pm 38.2 31.5 1.3 10 19.1 SSW 26 35 14 19 1011.1 1010.1 0.0
10/06:00pm 38.9 32.3 1.8 10 19.4 SSW 26 37 14 20 1011.0 1010.0 0.0
10/05:30pm 39.6 34.1 0.9 9 20.1 SSW 19 28 10 15 1011.1 1010.1 0.0
10/05:00pm 39.9 34.6 -0.5 8 20.6 SW 17 28 9 15 1011.1 1010.1 0.0
10/04:30pm 39.3 34.9 0.6 9 19.9 SSW 13 20 7 11 1011.4 1010.4 0.0
10/04:00pm 39.4 33.7 0.7 9 20.0 S 20 33 11 18 1011.7 1010.7 0.0
10/03:30pm 39.1 34.9 1.9 10 19.5 SSW 13 26 7 14 1012.0 1011.0 0.0
10/03:00pm 39.1 34.9 1.9 10 19.5 SSW 13 24 7 13 1012.3 1011.3 0.0
10/02:30pm 38.8 33.9 1.7 10 19.4 S 17 24 9 13 1012.7 1011.7 0.0
10/02:00pm 37.8 33.2 3.5 12 18.3 SSE 17 28 9 15 1013.1 1012.1 0.0
10/01:30pm 36.5 32.1 4.7 14 17.2 SE 17 26 9 14 1013.6 1012.6 0.0
10/01:00pm 35.8 30.5 5.1 15 16.6 SSE 22 30 12 16 1014.0 1013.1 0.0
10/12:30pm 35.2 29.8 6.5 17 15.8 SSE 24 32 13 17 1014.2 1013.3 0.0
10/12:00pm 34.7 29.0 6.9 18 15.4 SSE 26 35 14 19 1014.4 1013.5 0.0
10/11:30am 33.6 28.3 6.8 19 14.7 SSE 24 33 13 18 1014.7 1013.8 0.0
10/11:00am 32.3 26.3 7.2 21 13.8 SSE 28 33 15 18 1014.7 1013.8 0.0
10/10:30am 31.4 25.4 7.1 22 13.3 SSE 28 33 15 18 1014.8 1013.9 0.0
10/10:00am 30.2 23.4 6.8 23 12.6 SSE 32 39 17 21 1015.0 1014.1 0.0
10/09:30am 29.6 23.3 7.5 25 12.0 SSE 30 37 16 20 1015.1 1014.2 0.0
10/09:00am 28.8 21.9 7.4 26 11.6 SSE 33 41 18 22 1015.0 1014.1 0.0
10/08:30am 28.7 22.5 7.9 27 11.4 SSE 30 41 16 22 1014.6 1013.7 0.0
10/08:00am 27.5 23.1 8.9 31 10.3 S 22 28 12 15 1014.4 1013.5 0.0
10/07:30am 26.6 22.6 9.0 33 9.7 S 20 26 11 14 1014.4 1013.5 0.0
10/07:00am 25.7 22.3 9.1 35 9.1 S 17 20 9 11 1014.0 1013.1 0.0
10/06:30am 25.5 21.5 8.9 35 9.1 S 20 28 11 15 1013.6 1012.6 0.0
10/06:00am 25.9 20.7 8.8 34 9.3 S 26 32 14 17 1013.0 1012.0 0.0
10/05:30am 26.4 20.8 8.8 33 9.6 S 28 35 15 19 1012.7 1011.7 0.0
10/05:00am 26.9 20.9 8.8 32 9.9 S 30 39 16 21 1012.6 1011.6 0.0
10/04:30am 27.3 21.6 8.2 30 10.4 SSW 28 35 15 19 1012.3 1011.3 0.0
10/04:00am 27.6 21.8 8.0 29 10.7 SSW 28 33 15 18 1012.3 1011.3 0.0
10/03:30am 28.0 22.6 7.8 28 11.0 SSW 26 33 14 18 1012.4 1011.4 0.0
10/03:00am 28.3 22.9 6.4 25 11.6 SSW 24 30 13 16 1012.5 1011.5 0.0
10/02:30am 28.9 23.0 5.7 23 12.2 S 26 30 14 16 1012.5 1011.5 0.0
10/02:00am 29.3 22.5 3.3 19 13.2 SSW 28 33 15 18 1012.7 1011.7 0.0
10/01:30am 29.4 21.8 -1.9 13 14.5 SSW 28 35 15 19 1012.7 1011.7 0.0
10/01:27am 29.4 21.9 -4.1 11 14.9 SW 26 35 14 19 1012.7 1011.7 0.0
10/01:00am 30.6 25.8 -11.0 6 16.6 E 9 11 5 6 1012.1 1011.1 0.0
10/12:30am 31.7 26.9 -10.2 6 17.1 ESE 9 11 5 6 1012.4 1011.4 0.0
10/12:00am 33.2 27.6 -11.5 5 18.2 SE 13 15 7 8 1012.5 1011.5 0.0
 
Date/Time
EDT
Temp
°C
App
Temp
°C
Dew
Point
°C
Rel
Hum
%
Delta-T
°C
Wind Press
QNH
hPa
Press
MSL
hPa
Rain since
9am
mm
Dir  Spd
km/h
Gust
km/h
Spd
kts
Gust
kts
09/11:30pm 33.8 29.3 -11.0 5 18.4 SSW 7 9 4 5 1012.7 1011.7 0.0
09/11:00pm 34.6 30.2 -10.5 5 18.9 SW 7 9 4 5 1012.7 1011.7 0.0
09/10:30pm 35.2 31.0 -10.1 5 19.2 SW 6 7 3 4 1012.6 1011.6 0.0
09/10:00pm 34.7 29.9 -10.4 5 18.9 W 9 9 5 5 1012.3 1011.3 0.0
09/09:30pm 34.8 31.7 -10.3 5 18.9 CALM 0 0 0 0 1012.1 1011.1 0.0
09/09:00pm 35.7 32.7 -9.7 5 19.4 CALM 0 0 0 0 1011.9 1010.9 0.0
09/08:30pm 38.0 33.7 -10.9 4 20.9 NNW 6 7 3 4 1011.7 1010.7 0.0
09/08:00pm 39.7 34.6 -9.8 4 21.8 W 11 15 6 8 1011.5 1010.5 0.0
09/07:30pm 40.6 36.3 -9.2 4 22.3 NNW 7 13 4 7 1011.2 1010.2 0.0
09/07:00pm 40.4 35.7 -9.3 4 22.2 N 9 17 5 9 1011.0 1010.0 0.0
09/06:30pm 41.0 34.8 -8.9 4 22.5 NW 17 22 9 12 1010.9 1009.9 0.0
09/06:00pm 40.8 36.1 -9.1 4 22.4 NNW 9 17 5 9 1010.8 1009.8 0.0
09/05:30pm 40.5 35.0 -9.3 4 22.3 NW 13 19 7 10 1011.0 1010.0 0.0
09/05:00pm 41.2 35.4 -8.8 4 22.6 NW 15 24 8 13 1011.0 1010.0 0.0

Other formats

Comma delimited format used in spreadsheet applications
http://www.bom.gov.au/fwo/IDN60801/IDN60801.95699.axf

JavaScript Object Notation format (JSON) in row-major order
http://www.bom.gov.au/fwo/IDN60801/IDN60801.95699.json

Data quality

Most of these data are generated automatically and are frequently updated. Quality checks on data are not normally performed. It is possible for incorrect values to appear. Refer to information at About Latest Weather Observations and please check the disclaimer before using these data.